sensor_id;sensor_type;location;lat;lon;timestamp;P1;durP1;ratioP1;P2;durP2;ratioP2
53281;SDS011;39167;52.794;6.892;2022-08-04T00:00:39;14.82;;;4.90;;
53281;SDS011;39167;52.794;6.892;2022-08-04T00:03:10;9.85;;;4.47;;
53281;SDS011;39167;52.794;6.892;2022-08-04T00:08:15;12.00;;;4.18;;
53281;SDS011;39167;52.794;6.892;2022-08-04T00:10:48;8.65;;;4.28;;
53281;SDS011;39167;52.794;6.892;2022-08-04T00:13:17;10.80;;;4.30;;
53281;SDS011;39167;52.794;6.892;2022-08-04T00:15:50;11.13;;;5.07;;
53281;SDS011;39167;52.794;6.892;2022-08-04T00:18:17;10.73;;;4.32;;
53281;SDS011;39167;52.794;6.892;2022-08-04T00:20:48;11.20;;;4.43;;
53281;SDS011;39167;52.794;6.892;2022-08-04T00:23:20;14.60;;;4.65;;
53281;SDS011;39167;52.794;6.892;2022-08-04T00:25:47;10.35;;;4.22;;
53281;SDS011;39167;52.794;6.892;2022-08-04T00:28:13;11.23;;;4.45;;
53281;SDS011;39167;52.794;6.892;2022-08-04T00:30:40;8.27;;;4.10;;
53281;SDS011;39167;52.794;6.892;2022-08-04T00:33:06;8.25;;;3.78;;
53281;SDS011;39167;52.794;6.892;2022-08-04T00:35:32;14.38;;;4.47;;
53281;SDS011;39167;52.794;6.892;2022-08-04T00:37:59;14.82;;;4.32;;
53281;SDS011;39167;52.794;6.892;2022-08-04T00:40:35;11.93;;;4.53;;
53281;SDS011;39167;52.794;6.892;2022-08-04T00:46:07;12.75;;;4.80;;
53281;SDS011;39167;52.794;6.892;2022-08-04T00:54:10;12.88;;;4.03;;
53281;SDS011;39167;52.794;6.892;2022-08-04T00:56:56;8.48;;;4.28;;
53281;SDS011;39167;52.794;6.892;2022-08-04T00:59:50;10.55;;;4.63;;
53281;SDS011;39167;52.794;6.892;2022-08-04T01:05:19;7.75;;;3.38;;
53281;SDS011;39167;52.794;6.892;2022-08-04T01:16:15;13.32;;;4.65;;
53281;SDS011;39167;52.794;6.892;2022-08-04T01:18:58;7.82;;;4.07;;
53281;SDS011;39167;52.794;6.892;2022-08-04T01:26:49;11.95;;;5.32;;
53281;SDS011;39167;52.794;6.892;2022-08-04T01:29:22;14.82;;;4.90;;
53281;SDS011;39167;52.794;6.892;2022-08-04T01:32:03;12.40;;;4.90;;
53281;SDS011;39167;52.794;6.892;2022-08-04T01:34:42;15.13;;;4.72;;
53281;SDS011;39167;52.794;6.892;2022-08-04T01:37:45;11.50;;;4.68;;
53281;SDS011;39167;52.794;6.892;2022-08-04T01:40:18;8.70;;;4.18;;
53281;SDS011;39167;52.794;6.892;2022-08-04T01:42:46;10.68;;;4.72;;
53281;SDS011;39167;52.794;6.892;2022-08-04T01:45:16;13.65;;;5.63;;
53281;SDS011;39167;52.794;6.892;2022-08-04T01:47:53;12.77;;;4.72;;
53281;SDS011;39167;52.794;6.892;2022-08-04T01:50:20;12.00;;;5.05;;
53281;SDS011;39167;52.794;6.892;2022-08-04T01:52:47;10.95;;;4.75;;
53281;SDS011;39167;52.794;6.892;2022-08-04T01:55:13;10.10;;;4.57;;
53281;SDS011;39167;52.794;6.892;2022-08-04T01:57:41;14.20;;;4.95;;
53281;SDS011;39167;52.794;6.892;2022-08-04T02:00:19;8.68;;;4.70;;
53281;SDS011;39167;52.794;6.892;2022-08-04T02:02:46;11.88;;;4.95;;
53281;SDS011;39167;52.794;6.892;2022-08-04T02:05:14;13.02;;;5.00;;
53281;SDS011;39167;52.794;6.892;2022-08-04T02:21:25;9.25;;;5.50;;
53281;SDS011;39167;52.794;6.892;2022-08-04T02:23:53;10.52;;;4.78;;
53281;SDS011;39167;52.794;6.892;2022-08-04T02:26:29;11.02;;;4.85;;
53281;SDS011;39167;52.794;6.892;2022-08-04T02:31:42;13.73;;;5.28;;
53281;SDS011;39167;52.794;6.892;2022-08-04T02:34:25;7.78;;;4.45;;
53281;SDS011;39167;52.794;6.892;2022-08-04T02:36:53;13.68;;;5.03;;
53281;SDS011;39167;52.794;6.892;2022-08-04T02:39:20;9.57;;;4.90;;
53281;SDS011;39167;52.794;6.892;2022-08-04T02:41:48;12.50;;;5.32;;
53281;SDS011;39167;52.794;6.892;2022-08-04T02:44:19;10.75;;;4.65;;
53281;SDS011;39167;52.794;6.892;2022-08-04T02:46:52;14.40;;;5.82;;
53281;SDS011;39167;52.794;6.892;2022-08-04T02:49:20;14.05;;;4.93;;
53281;SDS011;39167;52.794;6.892;2022-08-04T02:51:49;12.45;;;4.93;;
53281;SDS011;39167;52.794;6.892;2022-08-04T02:54:17;12.00;;;5.47;;
53281;SDS011;39167;52.794;6.892;2022-08-04T02:56:46;12.25;;;4.93;;
53281;SDS011;39167;52.794;6.892;2022-08-04T02:59:15;9.15;;;4.50;;
53281;SDS011;39167;52.794;6.892;2022-08-04T03:01:44;10.98;;;4.72;;
53281;SDS011;39167;52.794;6.892;2022-08-04T03:04:20;11.15;;;4.78;;
53281;SDS011;39167;52.794;6.892;2022-08-04T03:10:13;11.30;;;4.85;;
53281;SDS011;39167;52.794;6.892;2022-08-04T03:33:13;13.73;;;5.70;;
53281;SDS011;39167;52.794;6.892;2022-08-04T03:36:22;11.60;;;5.57;;
53281;SDS011;39167;52.794;6.892;2022-08-04T03:39:36;9.52;;;4.88;;
53281;SDS011;39167;52.794;6.892;2022-08-04T03:45:45;15.23;;;5.32;;
53281;SDS011;39167;52.794;6.892;2022-08-04T03:51:26;11.52;;;5.82;;
53281;SDS011;39167;52.794;6.892;2022-08-04T04:00:08;16.13;;;5.47;;
53281;SDS011;39167;52.794;6.892;2022-08-04T04:03:04;12.63;;;5.18;;
53281;SDS011;39167;52.794;6.892;2022-08-04T04:06:19;11.55;;;5.00;;
53281;SDS011;39167;52.794;6.892;2022-08-04T04:11:50;14.45;;;5.35;;
53281;SDS011;39167;52.794;6.892;2022-08-04T04:17:43;13.48;;;4.63;;
53281;SDS011;39167;52.794;6.892;2022-08-04T04:20:32;15.27;;;5.18;;
53281;SDS011;39167;52.794;6.892;2022-08-04T04:46:36;11.13;;;4.65;;
53281;SDS011;39167;52.794;6.892;2022-08-04T04:52:35;13.35;;;4.63;;
53281;SDS011;39167;52.794;6.892;2022-08-04T04:57:17;12.05;;;4.72;;
53281;SDS011;39167;52.794;6.892;2022-08-04T04:59:55;16.85;;;5.18;;
53281;SDS011;39167;52.794;6.892;2022-08-04T05:02:42;13.93;;;5.40;;
53281;SDS011;39167;52.794;6.892;2022-08-04T05:10:44;15.35;;;4.72;;
53281;SDS011;39167;52.794;6.892;2022-08-04T05:15:58;13.75;;;4.90;;
53281;SDS011;39167;52.794;6.892;2022-08-04T05:18:29;8.25;;;4.07;;
53281;SDS011;39167;52.794;6.892;2022-08-04T05:23:54;9.98;;;4.50;;
53281;SDS011;39167;52.794;6.892;2022-08-04T05:26:25;12.48;;;4.70;;
53281;SDS011;39167;52.794;6.892;2022-08-04T05:28:56;11.98;;;4.05;;
53281;SDS011;39167;52.794;6.892;2022-08-04T05:31:33;13.95;;;4.88;;
53281;SDS011;39167;52.794;6.892;2022-08-04T05:34:07;13.73;;;4.60;;
53281;SDS011;39167;52.794;6.892;2022-08-04T05:36:35;11.80;;;4.33;;
53281;SDS011;39167;52.794;6.892;2022-08-04T05:39:13;19.30;;;4.57;;
53281;SDS011;39167;52.794;6.892;2022-08-04T05:41:42;17.13;;;4.93;;
53281;SDS011;39167;52.794;6.892;2022-08-04T05:44:08;15.50;;;4.95;;
53281;SDS011;39167;52.794;6.892;2022-08-04T05:46:35;16.35;;;4.93;;
53281;SDS011;39167;52.794;6.892;2022-08-04T05:49:01;15.77;;;4.43;;
53281;SDS011;39167;52.794;6.892;2022-08-04T05:51:28;10.75;;;4.38;;
53281;SDS011;39167;52.794;6.892;2022-08-04T05:53:55;10.43;;;4.00;;
53281;SDS011;39167;52.794;6.892;2022-08-04T05:56:22;9.95;;;4.07;;
53281;SDS011;39167;52.794;6.892;2022-08-04T05:58:51;13.13;;;4.10;;
53281;SDS011;39167;52.794;6.892;2022-08-04T06:01:18;14.25;;;4.43;;
53281;SDS011;39167;52.794;6.892;2022-08-04T06:03:45;12.75;;;4.72;;
53281;SDS011;39167;52.794;6.892;2022-08-04T06:06:14;14.88;;;4.30;;
53281;SDS011;39167;52.794;6.892;2022-08-04T06:08:43;16.08;;;4.55;;
53281;SDS011;39167;52.794;6.892;2022-08-04T06:11:08;12.68;;;3.90;;
53281;SDS011;39167;52.794;6.892;2022-08-04T06:13:49;13.02;;;4.38;;
53281;SDS011;39167;52.794;6.892;2022-08-04T06:16:18;11.48;;;4.40;;
53281;SDS011;39167;52.794;6.892;2022-08-04T06:18:48;10.45;;;3.72;;
53281;SDS011;39167;52.794;6.892;2022-08-04T06:21:17;13.60;;;4.28;;
53281;SDS011;39167;52.794;6.892;2022-08-04T06:23:45;16.05;;;5.03;;
53281;SDS011;39167;52.794;6.892;2022-08-04T06:26:13;12.77;;;5.85;;
53281;SDS011;39167;52.794;6.892;2022-08-04T06:28:50;11.63;;;4.60;;
53281;SDS011;39167;52.794;6.892;2022-08-04T06:31:17;14.35;;;4.97;;
53281;SDS011;39167;52.794;6.892;2022-08-04T06:34:02;18.08;;;5.13;;
53281;SDS011;39167;52.794;6.892;2022-08-04T06:36:30;15.80;;;5.57;;
53281;SDS011;39167;52.794;6.892;2022-08-04T06:39:00;11.20;;;5.47;;
53281;SDS011;39167;52.794;6.892;2022-08-04T06:41:29;15.20;;;5.60;;
53281;SDS011;39167;52.794;6.892;2022-08-04T06:43:58;15.95;;;5.80;;
53281;SDS011;39167;52.794;6.892;2022-08-04T06:46:26;16.20;;;5.47;;
53281;SDS011;39167;52.794;6.892;2022-08-04T06:48:54;11.02;;;5.60;;
53281;SDS011;39167;52.794;6.892;2022-08-04T06:51:21;13.95;;;5.30;;
53281;SDS011;39167;52.794;6.892;2022-08-04T06:53:48;18.08;;;6.03;;
53281;SDS011;39167;52.794;6.892;2022-08-04T06:56:14;11.70;;;5.72;;
53281;SDS011;39167;52.794;6.892;2022-08-04T06:58:42;9.88;;;5.90;;
53281;SDS011;39167;52.794;6.892;2022-08-04T07:01:10;14.82;;;5.68;;
53281;SDS011;39167;52.794;6.892;2022-08-04T07:03:38;12.07;;;5.38;;
53281;SDS011;39167;52.794;6.892;2022-08-04T07:06:03;14.68;;;6.47;;
53281;SDS011;39167;52.794;6.892;2022-08-04T07:08:29;12.75;;;5.82;;
53281;SDS011;39167;52.794;6.892;2022-08-04T07:10:56;12.30;;;6.32;;
53281;SDS011;39167;52.794;6.892;2022-08-04T07:13:23;13.13;;;5.85;;
53281;SDS011;39167;52.794;6.892;2022-08-04T07:15:50;12.65;;;6.65;;
53281;SDS011;39167;52.794;6.892;2022-08-04T07:18:16;11.70;;;6.00;;
53281;SDS011;39167;52.794;6.892;2022-08-04T07:20:43;13.50;;;5.97;;
53281;SDS011;39167;52.794;6.892;2022-08-04T07:23:10;13.02;;;6.28;;
53281;SDS011;39167;52.794;6.892;2022-08-04T07:25:41;15.57;;;6.35;;
53281;SDS011;39167;52.794;6.892;2022-08-04T07:28:08;21.55;;;6.07;;
53281;SDS011;39167;52.794;6.892;2022-08-04T07:30:34;14.65;;;5.88;;
53281;SDS011;39167;52.794;6.892;2022-08-04T07:33:01;13.40;;;6.10;;
53281;SDS011;39167;52.794;6.892;2022-08-04T07:35:27;12.15;;;6.65;;
53281;SDS011;39167;52.794;6.892;2022-08-04T07:37:53;19.33;;;6.40;;
53281;SDS011;39167;52.794;6.892;2022-08-04T07:40:19;14.82;;;6.05;;
53281;SDS011;39167;52.794;6.892;2022-08-04T07:42:45;17.42;;;6.35;;
53281;SDS011;39167;52.794;6.892;2022-08-04T07:45:11;13.18;;;6.05;;
53281;SDS011;39167;52.794;6.892;2022-08-04T07:47:37;14.95;;;5.80;;
53281;SDS011;39167;52.794;6.892;2022-08-04T07:50:05;11.05;;;5.93;;
53281;SDS011;39167;52.794;6.892;2022-08-04T07:52:35;16.70;;;5.93;;
53281;SDS011;39167;52.794;6.892;2022-08-04T07:55:01;13.77;;;6.03;;
53281;SDS011;39167;52.794;6.892;2022-08-04T07:57:28;16.05;;;6.10;;
53281;SDS011;39167;52.794;6.892;2022-08-04T07:59:54;12.25;;;5.68;;
53281;SDS011;39167;52.794;6.892;2022-08-04T08:02:20;11.23;;;5.93;;
53281;SDS011;39167;52.794;6.892;2022-08-04T08:04:46;11.80;;;5.60;;
53281;SDS011;39167;52.794;6.892;2022-08-04T08:07:12;13.40;;;5.72;;
53281;SDS011;39167;52.794;6.892;2022-08-04T08:09:38;14.95;;;5.55;;
53281;SDS011;39167;52.794;6.892;2022-08-04T08:12:05;16.65;;;5.95;;
53281;SDS011;39167;52.794;6.892;2022-08-04T08:14:32;15.18;;;5.22;;
53281;SDS011;39167;52.794;6.892;2022-08-04T08:16:59;16.67;;;4.90;;
53281;SDS011;39167;52.794;6.892;2022-08-04T08:19:26;13.75;;;5.65;;
53281;SDS011;39167;52.794;6.892;2022-08-04T08:21:53;13.90;;;5.75;;
53281;SDS011;39167;52.794;6.892;2022-08-04T08:24:19;10.88;;;4.80;;
53281;SDS011;39167;52.794;6.892;2022-08-04T08:26:45;12.30;;;5.13;;
53281;SDS011;39167;52.794;6.892;2022-08-04T08:29:11;15.90;;;5.15;;
53281;SDS011;39167;52.794;6.892;2022-08-04T08:31:37;18.50;;;4.93;;
53281;SDS011;39167;52.794;6.892;2022-08-04T08:34:03;21.25;;;5.20;;
53281;SDS011;39167;52.794;6.892;2022-08-04T08:36:45;17.60;;;4.50;;
53281;SDS011;39167;52.794;6.892;2022-08-04T08:39:19;11.23;;;5.35;;
53281;SDS011;39167;52.794;6.892;2022-08-04T08:44:50;13.43;;;4.70;;
53281;SDS011;39167;52.794;6.892;2022-08-04T08:47:34;10.40;;;4.38;;
53281;SDS011;39167;52.794;6.892;2022-08-04T08:56:16;13.25;;;3.83;;
53281;SDS011;39167;52.794;6.892;2022-08-04T09:09:52;11.52;;;3.08;;
53281;SDS011;39167;52.794;6.892;2022-08-04T09:12:52;8.43;;;3.55;;
53281;SDS011;39167;52.794;6.892;2022-08-04T09:15:40;11.32;;;3.42;;
53281;SDS011;39167;52.794;6.892;2022-08-04T09:26:26;10.73;;;3.17;;
53281;SDS011;39167;52.794;6.892;2022-08-04T09:29:02;10.23;;;3.10;;
53281;SDS011;39167;52.794;6.892;2022-08-04T09:32:03;11.30;;;3.20;;
53281;SDS011;39167;52.794;6.892;2022-08-04T09:35:00;8.07;;;2.85;;
53281;SDS011;39167;52.794;6.892;2022-08-04T09:40:23;6.85;;;2.25;;
53281;SDS011;39167;52.794;6.892;2022-08-04T09:43:14;9.43;;;2.33;;
53281;SDS011;39167;52.794;6.892;2022-08-04T09:46:14;13.30;;;3.35;;
53281;SDS011;39167;52.794;6.892;2022-08-04T09:49:01;9.60;;;2.95;;
53281;SDS011;39167;52.794;6.892;2022-08-04T09:54:01;14.10;;;3.08;;
53281;SDS011;39167;52.794;6.892;2022-08-04T09:56:33;10.27;;;3.53;;
53281;SDS011;39167;52.794;6.892;2022-08-04T09:59:10;10.27;;;3.17;;
53281;SDS011;39167;52.794;6.892;2022-08-04T10:01:55;10.02;;;3.38;;
53281;SDS011;39167;52.794;6.892;2022-08-04T10:04:27;8.25;;;2.78;;
53281;SDS011;39167;52.794;6.892;2022-08-04T10:06:59;10.75;;;3.45;;
53281;SDS011;39167;52.794;6.892;2022-08-04T10:20:21;13.38;;;3.33;;
53281;SDS011;39167;52.794;6.892;2022-08-04T10:23:11;10.75;;;3.22;;
53281;SDS011;39167;52.794;6.892;2022-08-04T10:28:24;9.68;;;3.08;;
53281;SDS011;39167;52.794;6.892;2022-08-04T10:31:02;8.88;;;3.20;;
53281;SDS011;39167;52.794;6.892;2022-08-04T10:33:40;9.43;;;3.63;;
53281;SDS011;39167;52.794;6.892;2022-08-04T10:36:12;11.77;;;3.45;;
53281;SDS011;39167;52.794;6.892;2022-08-04T10:38:51;10.27;;;4.00;;
53281;SDS011;39167;52.794;6.892;2022-08-04T10:44:10;11.40;;;3.95;;
53281;SDS011;39167;52.794;6.892;2022-08-04T10:46:57;7.25;;;3.17;;
53281;SDS011;39167;52.794;6.892;2022-08-04T11:00:18;9.02;;;4.03;;
53281;SDS011;39167;52.794;6.892;2022-08-04T11:08:15;9.65;;;3.80;;
53281;SDS011;39167;52.794;6.892;2022-08-04T11:13:25;10.27;;;4.65;;
53281;SDS011;39167;52.794;6.892;2022-08-04T11:15:58;8.38;;;3.70;;
53281;SDS011;39167;52.794;6.892;2022-08-04T11:21:27;9.05;;;4.18;;
53281;SDS011;39167;52.794;6.892;2022-08-04T11:24:08;10.02;;;4.47;;
53281;SDS011;39167;52.794;6.892;2022-08-04T11:29:18;8.77;;;3.88;;
53281;SDS011;39167;52.794;6.892;2022-08-04T11:31:51;7.30;;;3.10;;
53281;SDS011;39167;52.794;6.892;2022-08-04T11:34:23;12.02;;;3.90;;
53281;SDS011;39167;52.794;6.892;2022-08-04T11:36:58;11.63;;;3.22;;
53281;SDS011;39167;52.794;6.892;2022-08-04T11:39:34;9.68;;;3.30;;
53281;SDS011;39167;52.794;6.892;2022-08-04T11:44:47;9.75;;;3.17;;
53281;SDS011;39167;52.794;6.892;2022-08-04T11:47:22;8.25;;;3.15;;
53281;SDS011;39167;52.794;6.892;2022-08-04T11:49:53;5.28;;;2.63;;
53281;SDS011;39167;52.794;6.892;2022-08-04T11:52:28;11.35;;;2.72;;
53281;SDS011;39167;52.794;6.892;2022-08-04T11:54:56;7.32;;;2.35;;
53281;SDS011;39167;52.794;6.892;2022-08-04T11:57:23;8.90;;;3.10;;
53281;SDS011;39167;52.794;6.892;2022-08-04T11:59:49;10.30;;;2.78;;
53281;SDS011;39167;52.794;6.892;2022-08-04T12:02:32;8.00;;;2.67;;
53281;SDS011;39167;52.794;6.892;2022-08-04T12:07:59;8.02;;;2.70;;
53281;SDS011;39167;52.794;6.892;2022-08-04T12:13:49;8.35;;;2.00;;
53281;SDS011;39167;52.794;6.892;2022-08-04T12:16:35;9.20;;;2.30;;
53281;SDS011;39167;52.794;6.892;2022-08-04T12:19:20;6.15;;;1.80;;
53281;SDS011;39167;52.794;6.892;2022-08-04T12:21:51;7.03;;;2.40;;
53281;SDS011;39167;52.794;6.892;2022-08-04T12:24:20;10.35;;;2.97;;
53281;SDS011;39167;52.794;6.892;2022-08-04T12:26:55;7.38;;;1.88;;
53281;SDS011;39167;52.794;6.892;2022-08-04T12:29:25;7.45;;;2.30;;
53281;SDS011;39167;52.794;6.892;2022-08-04T12:31:53;7.95;;;2.50;;
53281;SDS011;39167;52.794;6.892;2022-08-04T12:34:33;8.68;;;2.42;;
53281;SDS011;39167;52.794;6.892;2022-08-04T12:39:49;7.22;;;1.63;;
53281;SDS011;39167;52.794;6.892;2022-08-04T12:42:28;9.23;;;2.20;;
53281;SDS011;39167;52.794;6.892;2022-08-04T12:45:14;8.20;;;2.45;;
53281;SDS011;39167;52.794;6.892;2022-08-04T12:47:42;7.03;;;2.25;;
53281;SDS011;39167;52.794;6.892;2022-08-04T12:50:12;7.22;;;1.85;;
53281;SDS011;39167;52.794;6.892;2022-08-04T12:52:42;5.80;;;1.80;;
53281;SDS011;39167;52.794;6.892;2022-08-04T12:55:12;12.55;;;2.42;;
53281;SDS011;39167;52.794;6.892;2022-08-04T12:57:39;6.32;;;2.42;;
53281;SDS011;39167;52.794;6.892;2022-08-04T13:00:06;8.23;;;2.50;;
53281;SDS011;39167;52.794;6.892;2022-08-04T13:02:36;6.90;;;1.98;;
53281;SDS011;39167;52.794;6.892;2022-08-04T13:05:08;5.45;;;2.22;;
53281;SDS011;39167;52.794;6.892;2022-08-04T13:07:38;6.75;;;2.15;;
53281;SDS011;39167;52.794;6.892;2022-08-04T13:10:13;5.45;;;2.30;;
53281;SDS011;39167;52.794;6.892;2022-08-04T13:12:40;6.03;;;2.08;;
53281;SDS011;39167;52.794;6.892;2022-08-04T13:15:10;6.38;;;2.65;;
53281;SDS011;39167;52.794;6.892;2022-08-04T13:17:47;5.78;;;2.45;;
53281;SDS011;39167;52.794;6.892;2022-08-04T13:20:25;7.13;;;2.55;;
53281;SDS011;39167;52.794;6.892;2022-08-04T13:23:15;5.35;;;2.70;;
53281;SDS011;39167;52.794;6.892;2022-08-04T13:25:42;6.72;;;2.63;;
53281;SDS011;39167;52.794;6.892;2022-08-04T13:28:28;6.15;;;2.22;;
53281;SDS011;39167;52.794;6.892;2022-08-04T13:30:58;5.50;;;2.45;;
53281;SDS011;39167;52.794;6.892;2022-08-04T13:33:30;3.78;;;2.03;;
53281;SDS011;39167;52.794;6.892;2022-08-04T13:35:57;4.72;;;2.30;;
53281;SDS011;39167;52.794;6.892;2022-08-04T13:38:25;4.72;;;2.08;;
53281;SDS011;39167;52.794;6.892;2022-08-04T13:40:52;3.80;;;1.92;;
53281;SDS011;39167;52.794;6.892;2022-08-04T13:43:39;4.28;;;2.03;;
53281;SDS011;39167;52.794;6.892;2022-08-04T13:46:08;3.78;;;1.80;;
53281;SDS011;39167;52.794;6.892;2022-08-04T13:48:38;5.72;;;2.17;;
53281;SDS011;39167;52.794;6.892;2022-08-04T13:51:06;3.67;;;1.73;;
53281;SDS011;39167;52.794;6.892;2022-08-04T13:53:35;6.38;;;1.60;;
53281;SDS011;39167;52.794;6.892;2022-08-04T13:56:04;5.50;;;2.28;;
53281;SDS011;39167;52.794;6.892;2022-08-04T13:58:33;4.35;;;1.98;;
53281;SDS011;39167;52.794;6.892;2022-08-04T14:01:08;6.32;;;2.47;;
53281;SDS011;39167;52.794;6.892;2022-08-04T14:03:43;7.45;;;2.25;;
53281;SDS011;39167;52.794;6.892;2022-08-04T14:06:25;4.13;;;2.20;;
53281;SDS011;39167;52.794;6.892;2022-08-04T14:09:06;5.68;;;2.63;;
53281;SDS011;39167;52.794;6.892;2022-08-04T14:11:39;4.97;;;1.65;;
53281;SDS011;39167;52.794;6.892;2022-08-04T14:14:14;3.40;;;1.40;;
53281;SDS011;39167;52.794;6.892;2022-08-04T14:16:57;8.70;;;1.98;;
53281;SDS011;39167;52.794;6.892;2022-08-04T14:19:45;8.05;;;1.92;;
53281;SDS011;39167;52.794;6.892;2022-08-04T14:27:45;5.43;;;1.63;;
53281;SDS011;39167;52.794;6.892;2022-08-04T14:33:03;5.47;;;1.83;;
53281;SDS011;39167;52.794;6.892;2022-08-04T14:35:31;4.90;;;1.75;;
53281;SDS011;39167;52.794;6.892;2022-08-04T14:38:01;6.10;;;1.90;;
53281;SDS011;39167;52.794;6.892;2022-08-04T14:40:33;4.90;;;1.67;;
53281;SDS011;39167;52.794;6.892;2022-08-04T14:43:00;6.47;;;1.50;;
53281;SDS011;39167;52.794;6.892;2022-08-04T14:45:37;5.85;;;1.67;;
53281;SDS011;39167;52.794;6.892;2022-08-04T14:48:05;6.82;;;1.98;;
53281;SDS011;39167;52.794;6.892;2022-08-04T14:53:10;5.07;;;1.52;;
53281;SDS011;39167;52.794;6.892;2022-08-04T14:55:37;4.53;;;1.30;;
53281;SDS011;39167;52.794;6.892;2022-08-04T14:58:04;3.78;;;1.40;;
53281;SDS011;39167;52.794;6.892;2022-08-04T15:00:31;3.78;;;1.23;;
53281;SDS011;39167;52.794;6.892;2022-08-04T15:03:03;3.45;;;1.42;;
53281;SDS011;39167;52.794;6.892;2022-08-04T15:05:33;2.22;;;1.30;;
53281;SDS011;39167;52.794;6.892;2022-08-04T15:08:00;3.75;;;1.60;;
53281;SDS011;39167;52.794;6.892;2022-08-04T15:10:26;3.72;;;1.77;;
53281;SDS011;39167;52.794;6.892;2022-08-04T15:12:53;3.85;;;1.48;;
53281;SDS011;39167;52.794;6.892;2022-08-04T15:15:19;6.05;;;1.52;;
53281;SDS011;39167;52.794;6.892;2022-08-04T15:17:45;3.95;;;1.65;;
53281;SDS011;39167;52.794;6.892;2022-08-04T15:20:12;3.35;;;1.48;;
53281;SDS011;39167;52.794;6.892;2022-08-04T15:22:38;6.60;;;1.48;;
53281;SDS011;39167;52.794;6.892;2022-08-04T15:25:04;7.20;;;1.48;;
53281;SDS011;39167;52.794;6.892;2022-08-04T15:27:31;4.72;;;1.52;;
53281;SDS011;39167;52.794;6.892;2022-08-04T15:30:01;6.07;;;1.70;;
53281;SDS011;39167;52.794;6.892;2022-08-04T15:32:30;3.97;;;1.40;;
53281;SDS011;39167;52.794;6.892;2022-08-04T15:35:04;3.10;;;1.08;;
53281;SDS011;39167;52.794;6.892;2022-08-04T15:37:38;2.88;;;1.23;;
53281;SDS011;39167;52.794;6.892;2022-08-04T15:40:17;3.92;;;1.55;;
53281;SDS011;39167;52.794;6.892;2022-08-04T15:42:48;3.92;;;1.60;;
53281;SDS011;39167;52.794;6.892;2022-08-04T15:45:26;2.40;;;1.27;;
53281;SDS011;39167;52.794;6.892;2022-08-04T15:50:28;7.25;;;1.23;;
53281;SDS011;39167;52.794;6.892;2022-08-04T15:58:03;3.15;;;0.85;;
53281;SDS011;39167;52.794;6.892;2022-08-04T16:05:57;3.65;;;1.52;;
53281;SDS011;39167;52.794;6.892;2022-08-04T16:11:57;6.40;;;1.45;;
53281;SDS011;39167;52.794;6.892;2022-08-04T16:14:07;2.33;;;0.90;;
53281;SDS011;39167;52.794;6.892;2022-08-04T16:19:03;2.40;;;1.20;;
53281;SDS011;39167;52.794;6.892;2022-08-04T16:21:52;6.93;;;1.63;;
53281;SDS011;39167;52.794;6.892;2022-08-04T16:24:38;3.72;;;1.00;;
53281;SDS011;39167;52.794;6.892;2022-08-04T16:27:06;4.10;;;1.10;;
53281;SDS011;39167;52.794;6.892;2022-08-04T16:35:01;2.85;;;1.08;;
53281;SDS011;39167;52.794;6.892;2022-08-04T16:37:36;2.75;;;0.95;;
53281;SDS011;39167;52.794;6.892;2022-08-04T16:43:05;3.50;;;1.30;;
53281;SDS011;39167;52.794;6.892;2022-08-04T16:48:32;2.88;;;1.30;;
53281;SDS011;39167;52.794;6.892;2022-08-04T16:51:06;2.42;;;0.93;;
53281;SDS011;39167;52.794;6.892;2022-08-04T16:53:40;4.80;;;1.35;;
53281;SDS011;39167;52.794;6.892;2022-08-04T16:56:11;4.18;;;1.90;;
53281;SDS011;39167;52.794;6.892;2022-08-04T16:58:39;4.63;;;1.88;;
53281;SDS011;39167;52.794;6.892;2022-08-04T17:01:08;4.45;;;1.77;;
53281;SDS011;39167;52.794;6.892;2022-08-04T17:03:36;6.03;;;1.65;;
53281;SDS011;39167;52.794;6.892;2022-08-04T17:06:10;3.65;;;1.90;;
53281;SDS011;39167;52.794;6.892;2022-08-04T17:08:39;5.55;;;1.80;;
53281;SDS011;39167;52.794;6.892;2022-08-04T17:11:05;8.10;;;2.40;;
53281;SDS011;39167;52.794;6.892;2022-08-04T17:13:40;5.80;;;1.75;;
53281;SDS011;39167;52.794;6.892;2022-08-04T17:16:11;10.48;;;2.05;;
53281;SDS011;39167;52.794;6.892;2022-08-04T17:21:28;7.55;;;1.98;;
53281;SDS011;39167;52.794;6.892;2022-08-04T17:23:56;5.90;;;2.13;;
53281;SDS011;39167;52.794;6.892;2022-08-04T17:26:24;5.47;;;2.00;;
53281;SDS011;39167;52.794;6.892;2022-08-04T17:28:53;5.55;;;1.70;;
53281;SDS011;39167;52.794;6.892;2022-08-04T17:31:20;4.72;;;2.33;;
53281;SDS011;39167;52.794;6.892;2022-08-04T17:33:49;8.10;;;2.22;;
53281;SDS011;39167;52.794;6.892;2022-08-04T17:36:23;4.78;;;1.70;;
53281;SDS011;39167;52.794;6.892;2022-08-04T17:38:58;4.65;;;1.83;;
53281;SDS011;39167;52.794;6.892;2022-08-04T17:41:27;5.15;;;1.48;;
53281;SDS011;39167;52.794;6.892;2022-08-04T17:43:58;3.33;;;1.58;;
53281;SDS011;39167;52.794;6.892;2022-08-04T17:46:43;4.10;;;1.55;;
53281;SDS011;39167;52.794;6.892;2022-08-04T17:49:19;4.22;;;1.40;;
53281;SDS011;39167;52.794;6.892;2022-08-04T17:51:47;4.80;;;1.48;;
53281;SDS011;39167;52.794;6.892;2022-08-04T17:54:17;6.40;;;1.80;;
53281;SDS011;39167;52.794;6.892;2022-08-04T17:56:52;4.03;;;1.40;;
53281;SDS011;39167;52.794;6.892;2022-08-04T17:59:24;4.82;;;1.63;;
53281;SDS011;39167;52.794;6.892;2022-08-04T18:01:56;2.95;;;1.20;;
53281;SDS011;39167;52.794;6.892;2022-08-04T18:04:27;3.92;;;1.20;;
53281;SDS011;39167;52.794;6.892;2022-08-04T18:09:25;5.20;;;1.55;;
53281;SDS011;39167;52.794;6.892;2022-08-04T18:11:55;3.50;;;1.40;;
53281;SDS011;39167;52.794;6.892;2022-08-04T18:14:23;3.80;;;1.50;;
53281;SDS011;39167;52.794;6.892;2022-08-04T18:16:50;2.28;;;0.90;;
53281;SDS011;39167;52.794;6.892;2022-08-04T18:19:16;3.10;;;1.25;;
53281;SDS011;39167;52.794;6.892;2022-08-04T18:21:42;3.63;;;1.30;;
53281;SDS011;39167;52.794;6.892;2022-08-04T18:24:09;1.80;;;0.90;;
53281;SDS011;39167;52.794;6.892;2022-08-04T18:26:37;2.72;;;1.20;;
53281;SDS011;39167;52.794;6.892;2022-08-04T18:29:04;3.42;;;1.13;;
53281;SDS011;39167;52.794;6.892;2022-08-04T18:31:32;2.60;;;1.08;;
53281;SDS011;39167;52.794;6.892;2022-08-04T18:33:59;2.47;;;1.00;;
53281;SDS011;39167;52.794;6.892;2022-08-04T18:36:25;4.97;;;1.40;;
53281;SDS011;39167;52.794;6.892;2022-08-04T18:38:51;5.03;;;1.52;;
53281;SDS011;39167;52.794;6.892;2022-08-04T18:41:17;4.47;;;1.70;;
53281;SDS011;39167;52.794;6.892;2022-08-04T18:43:42;4.85;;;1.80;;
53281;SDS011;39167;52.794;6.892;2022-08-04T18:46:08;4.32;;;1.70;;
53281;SDS011;39167;52.794;6.892;2022-08-04T18:48:34;2.42;;;1.48;;
53281;SDS011;39167;52.794;6.892;2022-08-04T18:51:00;5.72;;;1.80;;
53281;SDS011;39167;52.794;6.892;2022-08-04T18:53:25;4.63;;;2.10;;
53281;SDS011;39167;52.794;6.892;2022-08-04T18:55:51;4.53;;;1.85;;
53281;SDS011;39167;52.794;6.892;2022-08-04T18:58:17;4.55;;;2.08;;
53281;SDS011;39167;52.794;6.892;2022-08-04T19:00:42;5.47;;;1.80;;
53281;SDS011;39167;52.794;6.892;2022-08-04T19:03:08;5.63;;;1.90;;
53281;SDS011;39167;52.794;6.892;2022-08-04T19:05:35;5.63;;;2.00;;
53281;SDS011;39167;52.794;6.892;2022-08-04T19:08:01;4.22;;;1.83;;
53281;SDS011;39167;52.794;6.892;2022-08-04T19:10:27;7.03;;;1.80;;
53281;SDS011;39167;52.794;6.892;2022-08-04T19:12:52;5.82;;;1.90;;
53281;SDS011;39167;52.794;6.892;2022-08-04T19:15:18;3.90;;;1.50;;
53281;SDS011;39167;52.794;6.892;2022-08-04T19:17:44;3.05;;;1.48;;
53281;SDS011;39167;52.794;6.892;2022-08-04T19:20:09;4.68;;;1.90;;
53281;SDS011;39167;52.794;6.892;2022-08-04T19:22:35;4.43;;;1.70;;
53281;SDS011;39167;52.794;6.892;2022-08-04T19:25:01;7.32;;;2.55;;
53281;SDS011;39167;52.794;6.892;2022-08-04T19:27:26;5.43;;;1.98;;